Time,TemperatureF,DewpointF,PressureIn,WindDirection,WindDirectionDegrees,WindSpeedMPH,WindSpeedGustMPH,Humidity,HourlyPrecipIn,Conditions,Clouds,dailyrainin,SoftwareType,DateUTC
2013-08-31 00:00:00,81.4,73.0,29.87,SSW,192,0.0,8.0,75,0.00,,,0.00,weatherlink.com 1.10,2013-08-31 05:00:00,
2013-08-31 00:15:00,81.0,73.0,29.87,South,183,0.0,5.0,76,0.00,,,0.00,weatherlink.com 1.10,2013-08-31 05:15:00,
2013-08-31 00:30:00,80.6,73.0,29.87,South,186,4.0,7.0,77,0.00,,,0.00,weatherlink.com 1.10,2013-08-31 05:30:00,
2013-08-31 00:45:00,80.3,73.0,29.87,South,189,0.0,4.0,78,0.00,,,0.00,weatherlink.com 1.10,2013-08-31 05:45:00,
2013-08-31 01:00:00,80.0,73.0,29.87,South,188,2.0,3.0,79,0.00,,,0.00,weatherlink.com 1.10,2013-08-31 06:00:00,
2013-08-31 01:15:00,79.6,73.0,29.88,South,190,2.0,4.0,79,0.00,,,0.00,weatherlink.com 1.10,2013-08-31 06:15:00,
2013-08-31 01:30:00,79.3,73.0,29.88,SSW,192,0.0,1.0,80,0.00,,,0.00,weatherlink.com 1.10,2013-08-31 06:30:00,
2013-08-31 01:45:00,79.1,72.0,29.88,SSW,192,0.0,0.0,80,0.00,,,0.00,weatherlink.com 1.10,2013-08-31 06:45:00,
2013-08-31 02:00:00,78.7,72.0,29.88,SSW,192,0.0,1.0,81,0.00,,,0.00,weatherlink.com 1.10,2013-08-31 07:00:00,
2013-08-31 02:15:00,78.3,72.0,29.88,SSW,192,0.0,0.0,81,0.00,,,0.00,weatherlink.com 1.10,2013-08-31 07:15:00,
2013-08-31 02:30:00,77.9,72.0,29.88,SSW,192,0.0,0.0,82,0.00,,,0.00,weatherlink.com 1.10,2013-08-31 07:30:00,
2013-08-31 02:45:00,77.5,72.0,29.88,SSW,192,0.0,0.0,83,0.00,,,0.00,weatherlink.com 1.10,2013-08-31 07:45:00,
2013-08-31 03:00:00,77.0,72.0,29.89,SSW,192,0.0,0.0,83,0.00,,,0.00,weatherlink.com 1.10,2013-08-31 08:00:00,
2013-08-31 03:15:00,76.5,71.0,29.89,SSW,192,0.0,0.0,84,0.00,,,0.00,weatherlink.com 1.10,2013-08-31 08:15:00,
2013-08-31 03:30:00,76.2,71.0,29.89,SSW,192,0.0,0.0,85,0.00,,,0.00,weatherlink.com 1.10,2013-08-31 08:30:00,
2013-08-31 03:45:00,75.8,71.0,29.89,SSW,192,0.0,0.0,86,0.00,,,0.00,weatherlink.com 1.10,2013-08-31 08:45:00,
2013-08-31 04:00:00,75.6,71.0,29.89,SSW,192,0.0,0.0,86,0.00,,,0.00,weatherlink.com 1.10,2013-08-31 09:00:00,
2013-08-31 04:15:00,75.4,71.0,29.89,SSW,192,0.0,0.0,87,0.00,,,0.00,weatherlink.com 1.10,2013-08-31 09:15:00,
2013-08-31 04:30:00,75.3,72.0,29.89,SSW,192,0.0,0.0,88,0.00,,,0.00,weatherlink.com 1.10,2013-08-31 09:30:00,
2013-08-31 04:45:00,75.1,71.0,29.89,SSW,192,0.0,0.0,88,0.00,,,0.00,weatherlink.com 1.10,2013-08-31 09:45:00,
2013-08-31 05:00:00,74.9,72.0,29.89,SSW,192,0.0,0.0,89,0.00,,,0.00,weatherlink.com 1.10,2013-08-31 10:00:00,
2013-08-31 05:15:00,74.8,71.0,29.89,SSW,192,0.0,0.0,89,0.00,,,0.00,weatherlink.com 1.10,2013-08-31 10:15:00,
2013-08-31 05:30:00,74.6,71.0,29.89,SSW,192,0.0,1.0,89,0.00,,,0.00,weatherlink.com 1.10,2013-08-31 10:30:00,
2013-08-31 05:45:00,74.4,71.0,29.89,SSW,192,0.0,0.0,90,0.00,,,0.00,weatherlink.com 1.10,2013-08-31 10:45:00,
2013-08-31 06:00:00,74.3,71.0,29.90,SSW,192,0.0,1.0,90,0.00,,,0.00,weatherlink.com 1.10,2013-08-31 11:00:00,
2013-08-31 06:16:00,74.1,71.0,29.89,SSW,192,0.0,0.0,91,0.00,,,0.00,weatherlink.com 1.10,2013-08-31 11:16:00,
2013-08-31 06:31:00,74.0,71.0,29.89,SSW,192,0.0,2.0,91,0.00,,,0.00,weatherlink.com 1.10,2013-08-31 11:31:00,
2013-08-31 06:46:00,73.9,71.0,29.90,SSW,192,0.0,1.0,91,0.00,,,0.00,weatherlink.com 1.10,2013-08-31 11:46:00,
2013-08-31 07:01:00,73.9,72.0,29.90,SSW,192,0.0,1.0,92,0.00,,,0.00,weatherlink.com 1.10,2013-08-31 12:01:00,
2013-08-31 07:16:00,74.0,72.0,29.90,SSW,192,0.0,2.0,92,0.00,,,0.00,weatherlink.com 1.10,2013-08-31 12:16:00,
2013-08-31 07:31:00,74.3,72.0,29.90,South,186,0.0,3.0,92,0.00,,,0.00,weatherlink.com 1.10,2013-08-31 12:31:00,
2013-08-31 07:46:00,74.6,72.0,29.91,South,186,1.0,3.0,92,0.00,,,0.00,weatherlink.com 1.10,2013-08-31 12:46:00,
2013-08-31 08:01:00,75.3,73.0,29.91,South,178,3.0,5.0,92,0.00,,,0.00,weatherlink.com 1.10,2013-08-31 13:01:00,
2013-08-31 08:16:00,76.3,73.0,29.91,SSW,203,2.0,6.0,90,0.00,,,0.00,weatherlink.com 1.10,2013-08-31 13:16:00,
2013-08-31 08:31:00,78.0,74.0,29.91,SSW,206,5.0,8.0,87,0.00,,,0.00,weatherlink.com 1.10,2013-08-31 13:31:00,
2013-08-31 08:46:00,79.9,74.0,29.92,South,175,4.0,7.0,83,0.00,,,0.00,weatherlink.com 1.10,2013-08-31 13:46:00,
2013-08-31 09:01:00,81.5,75.0,29.92,SSE,156,2.0,7.0,80,0.00,,,0.00,weatherlink.com 1.10,2013-08-31 14:01:00,
2013-08-31 09:16:00,83.3,76.0,29.91,SSW,212,2.0,5.0,78,0.00,,,0.00,weatherlink.com 1.10,2013-08-31 14:16:00,
2013-08-31 09:31:00,84.9,76.0,29.91,SW,217,4.0,7.0,74,0.00,,,0.00,weatherlink.com 1.10,2013-08-31 14:31:00,
2013-08-31 09:46:00,85.6,75.0,29.91,WSW,251,3.0,9.0,71,0.00,,,0.00,weatherlink.com 1.10,2013-08-31 14:46:00,
2013-08-31 10:01:00,87.2,75.0,29.91,SSE,166,2.0,6.0,67,0.00,,,0.00,weatherlink.com 1.10,2013-08-31 15:01:00,
2013-08-31 10:16:00,88.6,73.0,29.91,South,173,7.0,11.0,60,0.00,,,0.00,weatherlink.com 1.10,2013-08-31 15:16:00,
2013-08-31 10:31:00,89.7,73.0,29.91,WSW,239,0.0,8.0,58,0.00,,,0.00,weatherlink.com 1.10,2013-08-31 15:31:00,
2013-08-31 10:46:00,91.7,73.0,29.90,SW,232,2.0,5.0,54,0.00,,,0.00,weatherlink.com 1.10,2013-08-31 15:46:00,
2013-08-31 11:01:00,93.0,72.0,29.90,WSW,249,5.0,8.0,51,0.00,,,0.00,weatherlink.com 1.10,2013-08-31 16:01:00,
2013-08-31 11:16:00,94.2,72.0,29.90,SW,234,0.0,8.0,49,0.00,,,0.00,weatherlink.com 1.10,2013-08-31 16:16:00,
2013-08-31 11:31:00,95.4,73.0,29.89,SSE,163,2.0,6.0,48,0.00,,,0.00,weatherlink.com 1.10,2013-08-31 16:31:00,
2013-08-31 11:46:00,94.2,73.0,29.89,West,261,0.0,3.0,50,0.00,,,0.00,weatherlink.com 1.10,2013-08-31 16:46:00,
2013-08-31 12:01:00,95.6,74.0,29.89,SW,217,0.0,4.0,50,0.00,,,0.00,weatherlink.com 1.10,2013-08-31 17:01:00,
2013-08-31 12:16:00,94.9,74.0,29.89,SSE,150,6.0,7.0,51,0.00,,,0.00,weatherlink.com 1.10,2013-08-31 17:16:00,
2013-08-31 12:31:00,94.8,73.0,29.88,North,5,3.0,7.0,50,0.00,,,0.00,weatherlink.com 1.10,2013-08-31 17:31:00,
2013-08-31 12:46:00,95.3,73.0,29.88,SE,140,1.0,7.0,49,0.00,,,0.00,weatherlink.com 1.10,2013-08-31 17:46:00,
2013-08-31 13:01:00,93.4,73.0,29.87,South,169,0.0,6.0,52,0.00,,,0.00,weatherlink.com 1.10,2013-08-31 18:01:00,
2013-08-31 13:16:00,94.8,74.0,29.87,NNW,333,2.0,8.0,51,0.00,,,0.00,weatherlink.com 1.10,2013-08-31 18:16:00,
2013-08-31 13:32:00,95.2,74.0,29.86,NE,46,3.0,9.0,50,0.00,,,0.00,weatherlink.com 1.10,2013-08-31 18:32:00,
2013-08-31 13:47:00,94.0,73.0,29.86,NNW,328,3.0,11.0,51,0.00,,,0.00,weatherlink.com 1.10,2013-08-31 18:47:00,
2013-08-31 14:02:00,94.4,73.0,29.85,ENE,58,1.0,8.0,50,0.00,,,0.00,weatherlink.com 1.10,2013-08-31 19:02:00,
2013-08-31 14:17:00,94.3,73.0,29.84,NNE,12,4.0,7.0,50,0.00,,,0.00,weatherlink.com 1.10,2013-08-31 19:17:00,
2013-08-31 14:32:00,95.7,73.0,29.84,NNE,26,2.0,9.0,48,0.00,,,0.00,weatherlink.com 1.10,2013-08-31 19:32:00,
2013-08-31 14:47:00,95.0,73.0,29.83,NNE,20,6.0,6.0,49,0.00,,,0.00,weatherlink.com 1.10,2013-08-31 19:47:00,
2013-08-31 15:02:00,95.9,73.0,29.82,North,351,4.0,9.0,48,0.00,,,0.00,weatherlink.com 1.10,2013-08-31 20:02:00,
2013-08-31 15:17:00,96.2,73.0,29.81,East,81,1.0,13.0,47,0.00,,,0.00,weatherlink.com 1.10,2013-08-31 20:17:00,
2013-08-31 15:32:00,96.5,72.0,29.81,SE,135,3.0,5.0,45,0.00,,,0.00,weatherlink.com 1.10,2013-08-31 20:32:00,
2013-08-31 15:47:00,97.2,73.0,29.80,South,189,4.0,7.0,45,0.00,,,0.00,weatherlink.com 1.10,2013-08-31 20:47:00,
2013-08-31 16:02:00,98.5,72.0,29.80,SSE,155,3.0,7.0,42,0.00,,,0.00,weatherlink.com 1.10,2013-08-31 21:02:00,
2013-08-31 16:17:00,98.8,71.0,29.79,ESE,113,2.0,6.0,41,0.00,,,0.00,weatherlink.com 1.10,2013-08-31 21:17:00,
2013-08-31 16:32:00,98.2,72.0,29.79,SSW,197,2.0,11.0,43,0.00,,,0.00,weatherlink.com 1.10,2013-08-31 21:32:00,
2013-08-31 16:47:00,96.6,72.0,29.79,North,11,8.0,9.0,45,0.00,,,0.00,weatherlink.com 1.10,2013-08-31 21:47:00,
2013-08-31 17:02:00,96.5,72.0,29.79,WNW,301,0.0,6.0,45,0.00,,,0.00,weatherlink.com 1.10,2013-08-31 22:02:00,
2013-08-31 17:17:00,96.9,70.0,29.79,South,183,2.0,6.0,42,0.00,,,0.00,weatherlink.com 1.10,2013-08-31 22:17:00,
2013-08-31 17:32:00,97.4,71.0,29.78,SSE,149,1.0,5.0,42,0.00,,,0.00,weatherlink.com 1.10,2013-08-31 22:32:00,
2013-08-31 17:47:00,97.5,71.0,29.78,SSE,148,2.0,6.0,42,0.00,,,0.00,weatherlink.com 1.10,2013-08-31 22:47:00,
2013-08-31 18:02:00,96.9,71.0,29.78,South,177,2.0,6.0,43,0.00,,,0.00,weatherlink.com 1.10,2013-08-31 23:02:00,
2013-08-31 18:17:00,96.6,71.0,29.78,SSW,200,1.0,5.0,43,0.00,,,0.00,weatherlink.com 1.10,2013-08-31 23:17:00,
2013-08-31 18:32:00,96.0,71.0,29.78,SSW,192,2.0,5.0,44,0.00,,,0.00,weatherlink.com 1.10,2013-08-31 23:32:00,
2013-08-31 18:47:00,95.6,70.0,29.77,South,190,3.0,4.0,44,0.00,,,0.00,weatherlink.com 1.10,2013-08-31 23:47:00,
2013-08-31 19:02:00,95.2,71.0,29.77,SSE,147,2.0,4.0,45,0.00,,,0.00,weatherlink.com 1.10,2013-09-01 00:02:00,
2013-08-31 19:17:00,94.2,70.0,29.78,SSW,194,0.0,3.0,46,0.00,,,0.00,weatherlink.com 1.10,2013-09-01 00:17:00,
2013-08-31 19:32:00,93.3,70.0,29.78,South,171,0.0,4.0,47,0.00,,,0.00,weatherlink.com 1.10,2013-09-01 00:32:00,
2013-08-31 19:47:00,92.5,70.0,29.79,SE,136,0.0,1.0,48,0.00,,,0.00,weatherlink.com 1.10,2013-09-01 00:47:00,
2013-08-31 20:02:00,91.4,70.0,29.79,SE,134,0.0,2.0,50,0.00,,,0.00,weatherlink.com 1.10,2013-09-01 01:02:00,
2013-08-31 20:17:00,90.4,70.0,29.79,South,170,0.0,2.0,51,0.00,,,0.00,weatherlink.com 1.10,2013-09-01 01:17:00,
2013-08-31 20:32:00,89.4,69.0,29.80,SSE,157,0.0,4.0,52,0.00,,,0.00,weatherlink.com 1.10,2013-09-01 01:32:00,
2013-08-31 20:47:00,88.5,70.0,29.80,SSE,164,0.0,3.0,54,0.00,,,0.00,weatherlink.com 1.10,2013-09-01 01:47:00,
2013-08-31 21:02:00,87.8,70.0,29.81,SE,142,0.0,3.0,55,0.00,,,0.00,weatherlink.com 1.10,2013-09-01 02:02:00,
2013-08-31 21:17:00,87.2,70.0,29.81,SSE,162,0.0,2.0,56,0.00,,,0.00,weatherlink.com 1.10,2013-09-01 02:17:00,
2013-08-31 21:32:00,86.5,69.0,29.82,South,171,1.0,3.0,57,0.00,,,0.00,weatherlink.com 1.10,2013-09-01 02:32:00,
2013-08-31 21:47:00,86.0,70.0,29.82,SSW,193,2.0,5.0,59,0.00,,,0.00,weatherlink.com 1.10,2013-09-01 02:47:00,
2013-08-31 22:02:00,85.4,70.0,29.82,ESE,121,2.0,8.0,61,0.00,,,0.00,weatherlink.com 1.10,2013-09-01 03:02:00,
2013-08-31 22:17:00,84.9,71.0,29.82,South,181,2.0,7.0,63,0.00,,,0.00,weatherlink.com 1.10,2013-09-01 03:17:00,
2013-08-31 22:32:00,84.4,71.0,29.83,South,179,0.0,7.0,64,0.00,,,0.00,weatherlink.com 1.10,2013-09-01 03:32:00,
2013-08-31 22:47:00,83.8,71.0,29.83,South,169,4.0,7.0,66,0.00,,,0.00,weatherlink.com 1.10,2013-09-01 03:47:00,
2013-08-31 23:02:00,83.3,72.0,29.83,South,186,3.0,6.0,68,0.00,,,0.00,weatherlink.com 1.10,2013-09-01 04:02:00,
2013-08-31 23:17:00,82.7,72.0,29.83,SSE,147,2.0,9.0,69,0.00,,,0.00,weatherlink.com 1.10,2013-09-01 04:17:00,
2013-08-31 23:32:00,82.3,72.0,29.82,SSW,192,1.0,4.0,70,0.00,,,0.00,weatherlink.com 1.10,2013-09-01 04:32:00,
2013-08-31 23:47:00,81.8,72.0,29.82,SSW,194,1.0,5.0,71,0.00,,,0.00,weatherlink.com 1.10,2013-09-01 04:47:00,